createdAt,value
2023-02-05T00:00:02.436Z,0.00
2023-02-05T00:01:02.742Z,0.00
2023-02-05T00:02:03.076Z,0.00
2023-02-05T00:03:02.869Z,0.00
2023-02-05T00:04:02.574Z,0.00
2023-02-05T00:05:02.787Z,0.00
2023-02-05T00:06:03.130Z,0.00
2023-02-05T00:07:03.031Z,0.00
2023-02-05T00:08:02.757Z,0.00
2023-02-05T00:09:02.823Z,0.00
2023-02-05T00:10:03.326Z,0.00
2023-02-05T00:11:03.031Z,0.00
2023-02-05T00:12:03.272Z,0.00
2023-02-05T00:13:03.328Z,0.00
2023-02-05T00:14:03.026Z,0.00
2023-02-05T00:15:03.071Z,0.00
2023-02-05T00:16:03.321Z,0.00
2023-02-05T00:17:02.735Z,0.00
2023-02-05T00:18:02.507Z,0.00
2023-02-05T00:19:02.406Z,0.00
2023-02-05T00:20:02.655Z,0.00
2023-02-05T00:21:02.498Z,0.00
2023-02-05T00:22:02.976Z,0.00
2023-02-05T00:23:02.908Z,0.00
2023-02-05T00:24:03.022Z,0.00
2023-02-05T00:25:02.872Z,0.00
2023-02-05T00:26:02.738Z,0.00
2023-02-05T00:27:02.673Z,0.00
2023-02-05T00:28:02.659Z,0.00
2023-02-05T00:29:02.391Z,0.00
2023-02-05T00:30:02.584Z,0.00
2023-02-05T00:31:02.797Z,0.00
2023-02-05T00:32:02.280Z,0.00
2023-02-05T00:33:02.564Z,0.00
2023-02-05T00:34:02.615Z,0.00
2023-02-05T00:35:02.539Z,0.00
2023-02-05T00:36:02.444Z,0.00
2023-02-05T00:37:03.294Z,0.00
2023-02-05T00:38:03.167Z,0.00
2023-02-05T00:39:03.428Z,0.00
2023-02-05T00:40:03.283Z,0.00
2023-02-05T00:41:03.383Z,0.00
2023-02-05T00:42:02.780Z,0.00
2023-02-05T00:43:02.424Z,0.00
2023-02-05T00:44:02.499Z,0.00
2023-02-05T00:45:02.453Z,0.00
2023-02-05T00:46:02.945Z,0.00
2023-02-05T00:47:02.553Z,0.00
2023-02-05T00:48:03.144Z,0.00
2023-02-05T00:49:02.755Z,0.00
2023-02-05T00:50:02.749Z,0.00
2023-02-05T00:51:02.533Z,0.00
2023-02-05T00:52:03.271Z,0.00
2023-02-05T00:53:03.440Z,0.00
2023-02-05T00:54:03.173Z,0.00
2023-02-05T00:55:03.134Z,0.00
2023-02-05T00:56:03.250Z,0.00
2023-02-05T00:57:02.934Z,0.00
2023-02-05T00:58:02.532Z,0.00
2023-02-05T00:59:02.437Z,0.00
2023-02-05T01:00:02.915Z,0.00
2023-02-05T01:01:02.831Z,0.00
2023-02-05T01:02:02.467Z,0.00
2023-02-05T01:03:02.415Z,0.00
2023-02-05T01:04:01.840Z,0.00
2023-02-05T01:05:02.364Z,0.00
2023-02-05T01:06:02.080Z,0.00
2023-02-05T01:07:02.323Z,0.00
2023-02-05T01:08:02.650Z,0.00
2023-02-05T01:09:02.577Z,0.00
2023-02-05T01:10:02.561Z,0.00
2023-02-05T01:11:02.601Z,0.00
2023-02-05T01:12:03.193Z,0.00
2023-02-05T01:13:02.744Z,0.00
2023-02-05T01:14:02.686Z,0.00
2023-02-05T01:15:03.054Z,0.00
2023-02-05T01:16:02.995Z,0.00
2023-02-05T01:17:02.801Z,0.00
2023-02-05T01:18:02.620Z,0.00
2023-02-05T01:19:02.572Z,0.00
2023-02-05T01:20:02.544Z,0.00
2023-02-05T01:21:02.887Z,0.00
2023-02-05T01:22:02.424Z,0.00
2023-02-05T01:23:02.848Z,0.00
2023-02-05T01:24:02.713Z,0.00
2023-02-05T01:25:02.395Z,0.00
2023-02-05T01:26:02.813Z,0.00
2023-02-05T01:27:02.389Z,0.00
2023-02-05T01:28:02.202Z,0.00
2023-02-05T01:29:02.234Z,0.00
2023-02-05T01:30:02.538Z,0.00
2023-02-05T01:31:01.900Z,0.00
2023-02-05T01:32:02.095Z,0.00
2023-02-05T01:33:02.606Z,0.00
2023-02-05T01:34:02.576Z,0.00
2023-02-05T01:35:02.527Z,0.00
2023-02-05T01:36:02.028Z,0.00
2023-02-05T01:37:02.430Z,0.00
2023-02-05T01:38:02.767Z,0.00
2023-02-05T01:39:02.446Z,0.00
2023-02-05T01:40:03.049Z,0.00
2023-02-05T01:41:02.939Z,0.00
2023-02-05T01:42:02.386Z,0.00
2023-02-05T01:43:02.414Z,0.00
2023-02-05T01:44:02.179Z,0.00
2023-02-05T01:45:02.375Z,0.00
2023-02-05T01:46:02.424Z,0.00
2023-02-05T01:47:01.798Z,0.00
2023-02-05T01:48:02.113Z,0.00
2023-02-05T01:49:02.135Z,0.00
2023-02-05T01:50:02.167Z,0.00
2023-02-05T01:51:02.047Z,0.00
2023-02-05T01:52:02.290Z,0.00
2023-02-05T01:53:02.542Z,0.00
2023-02-05T01:54:02.511Z,0.00
2023-02-05T01:55:02.409Z,0.00
2023-02-05T01:56:02.223Z,0.00
2023-02-05T01:57:02.216Z,0.00
2023-02-05T01:58:02.025Z,0.00
2023-02-05T01:59:01.865Z,0.00
2023-02-05T02:00:01.794Z,0.00
2023-02-05T02:01:01.835Z,0.00
2023-02-05T02:02:02.215Z,0.00
2023-02-05T02:03:02.872Z,0.00
2023-02-05T02:04:02.258Z,0.00
2023-02-05T02:05:02.329Z,0.00
2023-02-05T02:06:02.580Z,0.00
2023-02-05T02:07:02.585Z,0.00
2023-02-05T02:08:02.634Z,0.00
2023-02-05T02:09:02.997Z,0.00
2023-02-05T02:10:02.955Z,0.00
2023-02-05T02:11:02.981Z,0.00
2023-02-05T02:12:02.726Z,0.00
2023-02-05T02:13:02.623Z,0.00
2023-02-05T02:14:02.627Z,0.00
2023-02-05T02:15:03.040Z,0.00
2023-02-05T02:16:02.703Z,0.00
2023-02-05T02:17:02.443Z,0.00
2023-02-05T02:18:02.514Z,0.00
2023-02-05T02:19:02.449Z,0.00
2023-02-05T02:20:02.540Z,0.00
2023-02-05T02:21:01.987Z,0.00
2023-02-05T02:22:02.356Z,0.00
2023-02-05T02:23:02.189Z,0.00
2023-02-05T02:24:02.802Z,0.00
2023-02-05T02:25:02.494Z,0.00
2023-02-05T02:26:02.220Z,0.00
2023-02-05T02:27:02.179Z,0.00
2023-02-05T02:28:01.944Z,0.00
2023-02-05T02:29:01.933Z,0.00
2023-02-05T02:30:01.925Z,0.00
2023-02-05T02:31:02.260Z,0.00
2023-02-05T02:32:02.724Z,0.00
2023-02-05T02:33:02.797Z,0.00
2023-02-05T02:34:02.681Z,0.00
2023-02-05T02:35:02.213Z,0.00
2023-02-05T02:36:02.407Z,0.00
2023-02-05T02:37:02.322Z,0.00
2023-02-05T02:38:01.895Z,0.00
2023-02-05T02:39:02.327Z,0.00
2023-02-05T02:40:02.065Z,0.00
2023-02-05T02:41:01.824Z,0.00
2023-02-05T02:42:02.176Z,0.00
2023-02-05T02:43:02.613Z,0.00
2023-02-05T02:44:02.561Z,0.00
2023-02-05T02:45:02.708Z,0.00
2023-02-05T02:46:02.412Z,0.00
2023-02-05T02:47:01.933Z,0.00
2023-02-05T02:48:01.692Z,0.00
2023-02-05T02:49:01.766Z,0.00
2023-02-05T02:50:01.451Z,0.00
2023-02-05T02:51:02.046Z,0.00
2023-02-05T02:52:02.092Z,0.00
2023-02-05T02:53:01.661Z,0.00
2023-02-05T02:54:01.429Z,0.00
2023-02-05T02:55:01.804Z,0.00
2023-02-05T02:56:01.554Z,0.00
2023-02-05T02:57:02.322Z,0.00
2023-02-05T02:58:02.337Z,0.00
2023-02-05T02:59:02.096Z,0.00
2023-02-05T03:00:02.448Z,0.00
2023-02-05T03:01:01.945Z,0.00
2023-02-05T03:02:02.769Z,0.00
2023-02-05T03:03:02.761Z,0.00
2023-02-05T03:04:02.511Z,0.00
2023-02-05T03:05:02.731Z,0.00
2023-02-05T03:06:02.899Z,0.00
2023-02-05T03:07:03.149Z,0.00
2023-02-05T03:08:02.759Z,0.00
2023-02-05T03:09:02.685Z,0.00
2023-02-05T03:10:02.826Z,0.00
2023-02-05T03:11:02.742Z,0.00
2023-02-05T03:12:02.492Z,0.00
2023-02-05T03:13:02.876Z,0.00
2023-02-05T03:14:02.864Z,0.00
2023-02-05T03:15:02.794Z,0.00
2023-02-05T03:16:02.389Z,0.00
2023-02-05T03:17:02.420Z,0.00
2023-02-05T03:18:02.941Z,0.00
2023-02-05T03:19:02.426Z,0.00
2023-02-05T03:20:02.810Z,0.00
2023-02-05T03:21:02.355Z,0.00
2023-02-05T03:22:03.190Z,0.00
2023-02-05T03:23:02.723Z,0.00
2023-02-05T03:24:02.737Z,0.00
2023-02-05T03:25:02.724Z,0.00
2023-02-05T03:26:03.244Z,0.00
2023-02-05T03:27:02.965Z,0.00
2023-02-05T03:28:03.216Z,0.00
2023-02-05T03:29:03.336Z,0.00
2023-02-05T03:30:03.179Z,0.00
2023-02-05T03:31:03.532Z,0.00
2023-02-05T03:32:03.030Z,0.00
2023-02-05T03:33:03.158Z,0.00
2023-02-05T03:34:03.386Z,0.00
2023-02-05T03:35:03.420Z,0.00
2023-02-05T03:36:03.173Z,0.00
2023-02-05T03:37:03.641Z,0.00
2023-02-05T03:38:03.251Z,0.00
2023-02-05T03:39:03.390Z,0.00
2023-02-05T03:40:03.214Z,0.00
2023-02-05T03:41:03.618Z,0.00
2023-02-05T03:42:02.748Z,0.00
2023-02-05T03:43:02.821Z,0.00
2023-02-05T03:44:02.651Z,0.00
2023-02-05T03:45:03.040Z,0.00
2023-02-05T03:46:02.855Z,0.00
2023-02-05T03:47:03.092Z,0.00
2023-02-05T03:48:03.400Z,0.00
2023-02-05T03:49:03.131Z,0.00
2023-02-05T03:50:03.382Z,0.00
2023-02-05T03:51:03.380Z,0.00
2023-02-05T03:52:02.634Z,0.00
2023-02-05T03:53:02.296Z,0.00
2023-02-05T03:54:02.216Z,0.00
2023-02-05T03:55:02.546Z,0.00
2023-02-05T03:56:02.155Z,0.00
2023-02-05T03:57:02.828Z,0.00
2023-02-05T03:58:02.881Z,0.00
2023-02-05T03:59:03.011Z,0.00
2023-02-05T04:00:02.841Z,0.00
2023-02-05T04:01:03.009Z,0.00
2023-02-05T04:02:02.738Z,0.00
2023-02-05T04:03:02.156Z,0.00
2023-02-05T04:04:02.335Z,0.00
2023-02-05T04:05:02.522Z,0.00
2023-02-05T04:06:02.632Z,0.00
2023-02-05T04:07:02.781Z,0.00
2023-02-05T04:08:02.593Z,0.00
2023-02-05T04:09:02.533Z,0.00
2023-02-05T04:10:02.761Z,0.00
2023-02-05T04:11:02.318Z,0.00
2023-02-05T04:12:02.968Z,0.00
2023-02-05T04:13:03.052Z,0.00
2023-02-05T04:14:03.095Z,0.00
2023-02-05T04:15:02.544Z,0.00
2023-02-05T04:16:02.809Z,0.00
2023-02-05T04:17:02.257Z,0.00
2023-02-05T04:18:01.989Z,0.00
2023-02-05T04:19:02.093Z,0.00
2023-02-05T04:20:02.202Z,0.00
2023-02-05T04:21:02.519Z,0.00
2023-02-05T04:22:02.608Z,0.00
2023-02-05T04:23:02.584Z,0.00
2023-02-05T04:24:03.097Z,0.00
2023-02-05T04:25:02.598Z,0.00
2023-02-05T04:26:02.601Z,0.00
2023-02-05T04:27:02.143Z,0.00
2023-02-05T04:28:02.380Z,0.00
2023-02-05T04:29:02.191Z,0.00
2023-02-05T04:30:02.054Z,0.00
2023-02-05T04:31:02.543Z,0.00
2023-02-05T04:32:02.632Z,0.00
2023-02-05T04:33:02.421Z,0.00
2023-02-05T04:34:02.618Z,0.00
2023-02-05T04:35:02.481Z,0.00
2023-02-05T04:36:02.586Z,0.00
2023-02-05T04:37:02.482Z,0.00
2023-02-05T04:38:02.605Z,0.00
2023-02-05T04:39:02.942Z,0.00
2023-02-05T04:40:02.878Z,0.00
2023-02-05T04:41:02.980Z,0.00
2023-02-05T04:42:02.278Z,0.00
2023-02-05T04:43:02.357Z,0.00
2023-02-05T04:44:02.182Z,0.00
2023-02-05T04:45:02.314Z,0.00
2023-02-05T04:46:02.149Z,0.00
2023-02-05T04:47:02.636Z,0.00
2023-02-05T04:48:02.250Z,0.00
2023-02-05T04:49:02.665Z,0.00
2023-02-05T04:50:02.433Z,0.00
2023-02-05T04:51:02.417Z,0.00
2023-02-05T04:52:01.914Z,0.00
2023-02-05T04:53:02.421Z,0.00
2023-02-05T04:54:01.927Z,0.00
2023-02-05T04:55:01.895Z,0.00
2023-02-05T04:56:02.097Z,0.00
2023-02-05T04:57:01.937Z,0.00
2023-02-05T04:58:01.803Z,0.00
2023-02-05T04:59:02.066Z,0.00
2023-02-05T05:00:02.050Z,0.00
2023-02-05T05:01:01.755Z,0.00
2023-02-05T05:02:02.962Z,0.00
2023-02-05T05:03:03.209Z,0.00
2023-02-05T05:04:03.352Z,0.00
2023-02-05T05:05:03.030Z,0.00
2023-02-05T05:06:02.796Z,0.00
2023-02-05T05:07:02.096Z,0.00
2023-02-05T05:08:02.050Z,0.00
2023-02-05T05:09:02.071Z,0.00
2023-02-05T05:10:01.955Z,0.00
2023-02-05T05:11:02.311Z,0.00
2023-02-05T05:12:02.816Z,0.00
2023-02-05T05:13:02.378Z,0.00
2023-02-05T05:14:02.377Z,0.00
2023-02-05T05:15:02.840Z,0.00
2023-02-05T05:16:02.603Z,0.00
2023-02-05T05:17:03.294Z,0.00
2023-02-05T05:18:03.189Z,0.00
2023-02-05T05:19:03.275Z,0.00
2023-02-05T05:20:02.889Z,0.00
2023-02-05T05:21:02.676Z,0.00
2023-02-05T05:22:02.803Z,0.00
2023-02-05T05:23:02.695Z,0.00
2023-02-05T05:24:02.827Z,0.00
2023-02-05T05:25:02.603Z,0.00
2023-02-05T05:26:02.658Z,0.00
2023-02-05T05:27:03.264Z,0.00
2023-02-05T05:28:02.894Z,0.00
2023-02-05T05:29:02.793Z,0.00
2023-02-05T05:30:03.119Z,0.00
2023-02-05T05:31:03.091Z,0.00
2023-02-05T05:32:02.240Z,0.00
2023-02-05T05:33:02.659Z,0.00
2023-02-05T05:34:02.914Z,0.00
2023-02-05T05:35:02.673Z,0.00
2023-02-05T05:36:02.869Z,0.00
2023-02-05T05:37:02.754Z,0.00
2023-02-05T05:38:02.417Z,0.00
2023-02-05T05:39:03.013Z,0.00
2023-02-05T05:40:02.504Z,0.00
2023-02-05T05:41:02.902Z,0.00
2023-02-05T05:42:03.017Z,0.00
2023-02-05T05:43:02.505Z,0.00
2023-02-05T05:44:02.752Z,0.00
2023-02-05T05:45:02.878Z,0.00
2023-02-05T05:46:03.001Z,0.00
2023-02-05T05:47:02.085Z,0.00
2023-02-05T05:48:01.899Z,0.00
2023-02-05T05:49:02.192Z,0.00
2023-02-05T05:50:02.053Z,0.00
2023-02-05T05:51:01.911Z,0.00
2023-02-05T05:52:02.470Z,0.00
2023-02-05T05:53:02.270Z,0.00
2023-02-05T05:54:02.424Z,0.00
2023-02-05T05:55:02.506Z,0.00
2023-02-05T05:56:02.085Z,0.00
2023-02-05T05:57:02.601Z,0.00
2023-02-05T05:58:03.008Z,0.00
2023-02-05T05:59:03.165Z,0.00
2023-02-05T06:00:03.092Z,0.00
2023-02-05T06:01:02.921Z,0.00
2023-02-05T06:02:01.827Z,0.00
2023-02-05T06:03:01.587Z,0.00
2023-02-05T06:04:04.151Z,0.00
2023-02-05T06:05:02.087Z,0.00
2023-02-05T06:06:01.929Z,0.00
2023-02-05T06:07:02.323Z,0.00
2023-02-05T06:08:02.392Z,0.00
2023-02-05T06:09:08.475Z,0.00
2023-02-05T06:10:02.349Z,0.00
2023-02-05T06:11:02.449Z,0.00
2023-02-05T06:12:02.262Z,0.00
2023-02-05T06:13:02.015Z,0.00
2023-02-05T06:14:01.578Z,0.00
2023-02-05T06:15:02.155Z,0.00
2023-02-05T06:16:01.556Z,0.00
2023-02-05T06:17:02.285Z,0.00
2023-02-05T06:18:01.938Z,0.00
2023-02-05T06:19:01.902Z,0.00
2023-02-05T06:20:01.853Z,0.00
2023-02-05T06:21:01.735Z,0.00
2023-02-05T06:22:01.999Z,0.00
2023-02-05T06:23:02.050Z,0.00
2023-02-05T06:24:02.156Z,0.00
2023-02-05T06:25:01.944Z,0.00
2023-02-05T06:26:02.193Z,0.00
2023-02-05T06:27:02.627Z,0.00
2023-02-05T06:28:02.584Z,0.00
2023-02-05T06:29:02.442Z,0.00
2023-02-05T06:30:02.889Z,0.00
2023-02-05T06:31:03.034Z,4.00
2023-02-05T06:32:01.622Z,4.00
2023-02-05T06:33:01.611Z,0.00
2023-02-05T06:34:01.454Z,0.00
2023-02-05T06:35:02.012Z,4.00
2023-02-05T06:36:01.488Z,4.00
2023-02-05T06:37:02.606Z,4.00
2023-02-05T06:38:02.096Z,0.00
2023-02-05T06:39:02.342Z,0.00
2023-02-05T06:40:01.997Z,4.00
2023-02-05T06:41:02.034Z,4.00
2023-02-05T06:42:01.770Z,4.00
2023-02-05T06:43:01.924Z,4.00
2023-02-05T06:44:01.745Z,8.00
2023-02-05T06:45:02.002Z,8.00
2023-02-05T06:46:01.991Z,12.00
2023-02-05T06:47:02.443Z,12.00
2023-02-05T06:48:02.650Z,12.00
2023-02-05T06:49:02.728Z,12.00
2023-02-05T06:50:02.738Z,16.00
2023-02-05T06:51:02.666Z,12.00
2023-02-05T06:52:02.451Z,16.00
2023-02-05T06:53:02.801Z,16.00
2023-02-05T06:54:02.803Z,16.00
2023-02-05T06:55:02.752Z,16.00
2023-02-05T06:56:02.353Z,16.00
2023-02-05T06:57:01.986Z,16.00
2023-02-05T06:58:01.676Z,24.00
2023-02-05T06:59:01.754Z,32.00
2023-02-05T07:00:01.688Z,28.00
2023-02-05T07:01:01.660Z,28.00
2023-02-05T07:02:02.165Z,32.00
2023-02-05T07:03:02.058Z,32.00
2023-02-05T07:04:02.360Z,28.00
2023-02-05T07:05:02.122Z,44.00
2023-02-05T07:06:02.082Z,72.00
2023-02-05T07:07:02.715Z,80.00
2023-02-05T07:08:02.846Z,108.00
2023-02-05T07:09:02.830Z,116.00
2023-02-05T07:10:02.305Z,116.00
2023-02-05T07:11:02.904Z,104.00
2023-02-05T07:12:02.431Z,96.00
2023-02-05T07:13:04.413Z,100.00
2023-02-05T07:14:01.996Z,120.00
2023-02-05T07:15:02.145Z,148.00
2023-02-05T07:16:02.552Z,208.00
2023-02-05T07:17:02.198Z,240.00
2023-02-05T07:18:02.086Z,280.00
2023-02-05T07:19:01.968Z,340.00
2023-02-05T07:20:01.795Z,328.00
2023-02-05T07:21:01.913Z,356.00
2023-02-05T07:22:01.982Z,396.00
2023-02-05T07:23:02.474Z,432.00
2023-02-05T07:24:01.914Z,484.00
2023-02-05T07:25:04.434Z,476.00
2023-02-05T07:26:02.296Z,452.00
2023-02-05T07:27:02.894Z,452.00
2023-02-05T07:28:02.776Z,408.00
2023-02-05T07:29:02.988Z,468.00
2023-02-05T07:30:02.821Z,556.00
2023-02-05T07:31:02.991Z,740.00
2023-02-05T07:32:02.580Z,896.00
2023-02-05T07:33:02.218Z,900.00
2023-02-05T07:34:02.188Z,808.00
2023-02-05T07:35:02.147Z,760.00
2023-02-05T07:36:02.054Z,768.00
2023-02-05T07:37:02.076Z,724.00
2023-02-05T07:38:01.705Z,828.00
2023-02-05T07:39:01.881Z,872.00
2023-02-05T07:40:02.176Z,924.00
2023-02-05T07:41:02.121Z,1176.00
2023-02-05T07:42:02.292Z,1408.00
2023-02-05T07:43:02.199Z,1572.00
2023-02-05T07:44:02.271Z,1596.00
2023-02-05T07:45:01.703Z,1460.00
2023-02-05T07:46:01.684Z,1272.00
2023-02-05T07:47:01.784Z,996.00
2023-02-05T07:48:01.974Z,784.00
2023-02-05T07:49:01.983Z,684.00
2023-02-05T07:50:02.334Z,572.00
2023-02-05T07:51:02.398Z,472.00
2023-02-05T07:52:02.750Z,408.00
2023-02-05T07:53:02.476Z,532.00
2023-02-05T07:54:02.741Z,716.00
2023-02-05T07:55:02.144Z,860.00
2023-02-05T07:56:02.062Z,1060.00
2023-02-05T07:57:01.362Z,1208.00
2023-02-05T07:58:01.322Z,1344.00
2023-02-05T07:59:01.988Z,1656.00
2023-02-05T08:00:01.617Z,1704.00
2023-02-05T08:01:01.753Z,1364.00
2023-02-05T08:02:02.710Z,960.00
2023-02-05T08:03:02.689Z,884.00
2023-02-05T08:04:02.659Z,1116.00
2023-02-05T08:05:02.876Z,1268.00
2023-02-05T08:06:02.402Z,1476.00
2023-02-05T08:07:02.125Z,1600.00
2023-02-05T08:08:01.993Z,1556.00
2023-02-05T08:09:01.478Z,1576.00
2023-02-05T08:10:01.494Z,1380.00
2023-02-05T08:11:01.542Z,1304.00
2023-02-05T08:12:02.047Z,1244.00
2023-02-05T08:13:02.294Z,996.00
2023-02-05T08:14:02.261Z,692.00
2023-02-05T08:15:02.634Z,704.00
2023-02-05T08:16:02.124Z,888.00
2023-02-05T08:17:02.186Z,696.00
2023-02-05T08:18:02.460Z,728.00
2023-02-05T08:19:02.371Z,796.00
2023-02-05T08:20:02.417Z,868.00
2023-02-05T08:21:02.381Z,1032.00
2023-02-05T08:22:01.739Z,1524.00
2023-02-05T08:23:01.657Z,1304.00
2023-02-05T08:24:02.171Z,1304.00
2023-02-05T08:25:02.154Z,1224.00
2023-02-05T08:26:01.853Z,1240.00
2023-02-05T08:27:02.180Z,1132.00
2023-02-05T08:28:02.272Z,924.00
2023-02-05T08:29:02.727Z,644.00
2023-02-05T08:30:02.603Z,460.00
2023-02-05T08:31:02.397Z,468.00
2023-02-05T08:32:01.611Z,572.00
2023-02-05T08:33:01.794Z,564.00
2023-02-05T08:34:01.564Z,700.00
2023-02-05T08:35:01.766Z,948.00
2023-02-05T08:36:01.926Z,1256.00
2023-02-05T08:37:02.263Z,1240.00
2023-02-05T08:38:02.187Z,1288.00
2023-02-05T08:39:02.562Z,1496.00
2023-02-05T08:40:02.737Z,1316.00
2023-02-05T08:41:02.493Z,1212.00
2023-02-05T08:42:01.802Z,1152.00
2023-02-05T08:43:01.903Z,1076.00
2023-02-05T08:44:02.146Z,852.00
2023-02-05T08:45:01.951Z,700.00
2023-02-05T08:46:02.080Z,620.00
2023-02-05T08:47:01.856Z,508.00
2023-02-05T08:48:01.696Z,440.00
2023-02-05T08:49:02.101Z,388.00
2023-02-05T08:50:02.294Z,328.00
2023-02-05T08:51:01.714Z,388.00
2023-02-05T08:52:02.247Z,396.00
2023-02-05T08:53:02.495Z,452.00
2023-02-05T08:54:02.479Z,660.00
2023-02-05T08:55:02.382Z,1080.00
2023-02-05T08:56:02.435Z,1428.00
2023-02-05T08:57:02.064Z,1392.00
2023-02-05T08:58:02.391Z,1456.00
2023-02-05T08:59:02.080Z,1528.00
2023-02-05T09:00:02.078Z,1484.00
2023-02-05T09:01:01.982Z,1496.00
2023-02-05T09:02:02.233Z,1448.00
2023-02-05T09:03:02.520Z,1372.00
2023-02-05T09:04:02.420Z,1168.00
2023-02-05T09:05:08.771Z,1076.00
2023-02-05T09:06:02.343Z,1176.00
2023-02-05T09:07:03.334Z,1336.00
2023-02-05T09:08:02.465Z,1312.00
2023-02-05T09:09:02.932Z,920.00
2023-02-05T09:10:02.978Z,792.00
2023-02-05T09:11:02.756Z,1144.00
2023-02-05T09:12:02.882Z,1856.00
2023-02-05T09:13:02.732Z,1820.00
2023-02-05T09:14:02.748Z,1676.00
2023-02-05T09:15:03.038Z,1696.00
2023-02-05T09:16:03.152Z,1604.00
2023-02-05T09:17:02.332Z,1748.00
2023-02-05T09:18:02.438Z,1936.00
2023-02-05T09:19:02.511Z,2152.00
2023-02-05T09:20:02.518Z,2328.00
2023-02-05T09:21:02.162Z,1976.00
2023-02-05T09:22:02.682Z,1768.00
2023-02-05T09:23:02.575Z,1280.00
2023-02-05T09:24:02.538Z,1060.00
2023-02-05T09:25:03.149Z,916.00
2023-02-05T09:26:02.890Z,872.00
2023-02-05T09:27:02.249Z,816.00
2023-02-05T09:28:02.290Z,828.00
2023-02-05T09:29:02.203Z,768.00
2023-02-05T09:30:02.089Z,880.00
2023-02-05T09:31:01.970Z,880.00
2023-02-05T09:32:02.757Z,1216.00
2023-02-05T09:33:02.991Z,1144.00
2023-02-05T09:34:02.481Z,1164.00
2023-02-05T09:35:02.459Z,1612.00
2023-02-05T09:36:02.636Z,1700.00
2023-02-05T09:37:02.256Z,1300.00
2023-02-05T09:38:02.415Z,1256.00
2023-02-05T09:39:14.101Z,1304.00
2023-02-05T09:41:02.074Z,976.00
2023-02-05T09:42:02.691Z,1052.00
2023-02-05T09:43:02.939Z,1040.00
2023-02-05T09:44:02.914Z,952.00
2023-02-05T09:45:02.713Z,1308.00
2023-02-05T09:46:02.379Z,1288.00
2023-02-05T09:47:03.083Z,1660.00
2023-02-05T09:48:02.853Z,2052.00
2023-02-05T09:49:03.137Z,1676.00
2023-02-05T09:50:02.976Z,1656.00
2023-02-05T09:51:03.300Z,1240.00
2023-02-05T09:52:02.370Z,1016.00
2023-02-05T09:53:02.315Z,996.00
2023-02-05T09:54:02.362Z,1012.00
2023-02-05T09:55:02.095Z,1168.00
2023-02-05T09:56:02.304Z,1024.00
2023-02-05T09:57:02.959Z,1464.00
2023-02-05T09:58:02.985Z,1684.00
2023-02-05T09:59:02.537Z,1312.00
2023-02-05T10:00:02.599Z,1300.00
2023-02-05T10:01:02.744Z,1312.00
2023-02-05T10:02:05.819Z,1304.00
2023-02-05T10:03:03.089Z,1876.00
2023-02-05T10:04:03.059Z,2524.00
2023-02-05T10:05:03.352Z,2448.00
2023-02-05T10:06:03.065Z,2852.00
2023-02-05T10:07:03.723Z,3408.00
2023-02-05T10:08:03.560Z,4152.00
2023-02-05T10:09:03.449Z,5396.00
2023-02-05T10:10:03.494Z,5840.00
2023-02-05T10:11:03.460Z,6500.00
2023-02-05T10:12:03.166Z,7584.00
2023-02-05T10:13:03.001Z,5012.00
2023-02-05T10:14:03.192Z,4676.00
2023-02-05T10:15:03.253Z,4672.00
2023-02-05T10:16:03.060Z,4324.00
2023-02-05T10:17:03.533Z,3688.00
2023-02-05T10:18:03.371Z,3856.00
2023-02-05T10:19:03.299Z,3276.00
2023-02-05T10:20:03.243Z,3572.00
2023-02-05T10:21:03.095Z,3800.00
2023-02-05T10:22:03.210Z,4392.00
2023-02-05T10:23:02.904Z,3696.00
2023-02-05T10:24:02.913Z,4744.00
2023-02-05T10:25:02.816Z,3992.00
2023-02-05T10:26:02.664Z,4116.00
2023-02-05T10:27:03.225Z,5204.00
2023-02-05T10:28:03.043Z,4664.00
2023-02-05T10:29:02.849Z,3968.00
2023-02-05T10:30:02.804Z,4824.00
2023-02-05T10:31:03.040Z,5368.00
2023-02-05T10:32:03.414Z,5444.00
2023-02-05T10:33:02.976Z,5500.00
2023-02-05T10:34:03.502Z,4692.00
2023-02-05T10:35:03.025Z,5472.00
2023-02-05T10:36:02.959Z,5320.00
2023-02-05T10:37:03.430Z,6040.00
2023-02-05T10:38:04.701Z,6588.00
2023-02-05T10:39:03.392Z,7028.00
2023-02-05T10:40:03.361Z,6472.00
2023-02-05T10:41:03.252Z,6028.00
2023-02-05T10:42:03.142Z,5632.00
2023-02-05T10:43:02.538Z,5720.00
2023-02-05T10:44:03.167Z,4996.00
2023-02-05T10:45:02.823Z,3796.00
2023-02-05T10:46:02.795Z,3908.00
2023-02-05T10:47:03.236Z,3488.00
2023-02-05T10:48:02.828Z,3392.00
2023-02-05T10:49:02.771Z,5268.00
2023-02-05T10:50:02.621Z,5572.00
2023-02-05T10:51:03.227Z,4984.00
2023-02-05T10:52:03.604Z,5016.00
2023-02-05T10:53:03.480Z,4232.00
2023-02-05T10:54:03.416Z,3156.00
2023-02-05T10:55:03.488Z,3476.00
2023-02-05T10:56:03.266Z,4252.00
2023-02-05T10:57:02.313Z,3432.00
2023-02-05T10:58:02.910Z,3692.00
2023-02-05T10:59:02.785Z,3532.00
2023-02-05T11:00:02.991Z,2256.00
2023-02-05T11:01:02.773Z,2460.00
2023-02-05T11:02:02.638Z,2872.00
2023-02-05T11:03:03.167Z,3424.00
2023-02-05T11:04:03.161Z,3724.00
2023-02-05T11:05:03.053Z,3576.00
2023-02-05T11:06:02.938Z,2956.00
2023-02-05T11:07:02.740Z,2968.00
2023-02-05T11:08:03.243Z,3120.00
2023-02-05T11:09:03.140Z,3884.00
2023-02-05T11:10:02.959Z,4356.00
2023-02-05T11:11:02.819Z,5892.00
2023-02-05T11:12:03.018Z,5812.00
2023-02-05T11:13:02.536Z,5452.00
2023-02-05T11:14:02.352Z,4672.00
2023-02-05T11:15:02.255Z,3888.00
2023-02-05T11:16:02.163Z,3924.00
2023-02-05T11:17:02.069Z,4192.00
2023-02-05T11:18:02.876Z,5048.00
2023-02-05T11:19:02.428Z,4436.00
2023-02-05T11:20:02.346Z,3512.00
2023-02-05T11:21:02.759Z,3672.00
2023-02-05T11:22:02.425Z,4496.00
2023-02-05T11:23:03.040Z,4308.00
2023-02-05T11:24:03.112Z,4408.00
2023-02-05T11:25:03.049Z,4532.00
2023-02-05T11:26:02.927Z,4960.00
2023-02-05T11:27:03.090Z,5192.00
2023-02-05T11:28:02.786Z,5528.00
2023-02-05T11:29:02.884Z,5248.00
2023-02-05T11:30:02.447Z,5724.00
2023-02-05T11:31:02.490Z,3660.00
2023-02-05T11:32:02.439Z,3272.00
2023-02-05T11:33:02.547Z,3328.00
2023-02-05T11:34:01.984Z,2512.00
2023-02-05T11:35:02.590Z,2836.00
2023-02-05T11:36:01.970Z,3508.00
2023-02-05T11:37:02.318Z,3540.00
2023-02-05T11:38:02.422Z,4620.00
2023-02-05T11:39:02.031Z,3240.00
2023-02-05T11:40:02.585Z,3464.00
2023-02-05T11:41:02.517Z,3684.00
2023-02-05T11:42:02.216Z,4236.00
2023-02-05T11:43:02.688Z,5100.00
2023-02-05T11:44:02.798Z,7244.00
2023-02-05T11:45:02.691Z,7568.00
2023-02-05T11:46:02.900Z,6064.00
2023-02-05T11:47:02.805Z,6396.00
2023-02-05T11:48:02.545Z,7104.00
2023-02-05T11:49:02.537Z,6404.00
2023-02-05T11:50:02.496Z,6556.00
2023-02-05T11:51:02.400Z,7512.00
2023-02-05T11:52:02.767Z,5952.00
2023-02-05T11:53:02.361Z,4708.00
2023-02-05T11:54:02.234Z,4940.00
2023-02-05T11:55:02.119Z,5784.00
2023-02-05T11:56:02.079Z,5528.00
2023-02-05T11:57:02.379Z,5308.00
2023-02-05T11:58:02.805Z,6244.00
2023-02-05T11:59:02.728Z,5644.00
2023-02-05T12:00:02.680Z,5080.00
2023-02-05T12:01:02.403Z,4816.00
2023-02-05T12:02:02.919Z,4668.00
2023-02-05T12:03:02.832Z,3916.00
2023-02-05T12:04:02.738Z,3796.00
2023-02-05T12:05:02.643Z,4112.00
2023-02-05T12:06:02.724Z,4040.00
2023-02-05T12:07:02.613Z,4404.00
2023-02-05T12:08:02.361Z,4476.00
2023-02-05T12:09:02.447Z,4140.00
2023-02-05T12:10:02.064Z,3696.00
2023-02-05T12:11:02.004Z,3716.00
2023-02-05T12:12:02.130Z,3232.00
2023-02-05T12:13:02.653Z,3344.00
2023-02-05T12:14:02.734Z,3336.00
2023-02-05T12:15:02.694Z,3088.00
2023-02-05T12:16:02.460Z,3388.00
2023-02-05T12:17:02.426Z,3316.00
2023-02-05T12:18:01.729Z,4588.00
2023-02-05T12:19:01.603Z,4524.00
2023-02-05T12:20:02.283Z,3968.00
2023-02-05T12:21:02.091Z,4556.00
2023-02-05T12:22:02.103Z,3428.00
2023-02-05T12:23:02.638Z,3360.00
2023-02-05T12:24:02.722Z,3324.00
2023-02-05T12:25:02.732Z,3216.00
2023-02-05T12:26:02.182Z,3700.00
2023-02-05T12:27:02.745Z,3700.00
2023-02-05T12:28:02.535Z,4944.00
2023-02-05T12:29:02.136Z,4420.00
2023-02-05T12:30:02.543Z,3948.00
2023-02-05T12:31:01.903Z,4044.00
2023-02-05T12:32:02.292Z,4208.00
2023-02-05T12:33:01.637Z,3704.00
2023-02-05T12:34:01.430Z,2920.00
2023-02-05T12:35:01.505Z,3016.00
2023-02-05T12:36:01.944Z,2904.00
2023-02-05T12:37:01.690Z,2668.00
2023-02-05T12:38:02.202Z,2720.00
2023-02-05T12:39:03.329Z,2952.00
2023-02-05T12:40:01.789Z,3084.00
2023-02-05T12:41:02.292Z,3176.00
2023-02-05T12:42:02.063Z,3404.00
2023-02-05T12:43:02.734Z,3772.00
2023-02-05T12:44:02.387Z,3692.00
2023-02-05T12:45:02.690Z,3772.00
2023-02-05T12:46:02.362Z,3000.00
2023-02-05T12:47:02.494Z,3036.00